Harlingen, Texas
Current Conditions -  °F | °C
As of 12:52 AM on Thursday 23 Oct 2014 (Local Time) from KHRL Reporting Station
Clear Clear  
Wind Chill: 69°   Ceiling: Unl
Heat Index: 69°   Visibility: 10mi
Dew Point: 66°   Wind: 3mph
Humidity: 90%   Direction: 10°N
Pressure: 30.02"   Gusts: NA
Location:  26.19°N, 97.69°W
Report Text: KHRL 230552Z 01003KT 10SM CLR 21/19 A3002 RMK AO2 RAB12E43 SLP166 P0000 60001 T02060189 10256 20206 402940206 50001
Loading
Personal Weather Stations






























Interactive Weather Map
Tropical Storm Tracking
New forecast layout! Learn more

10-Day Weather Forecast

Advertisements
Track Severe Weather on mobile